createdAt,value
2023-05-03T00:13:38.571Z,66.59
2023-05-03T00:28:29.878Z,67.77
2023-05-03T00:43:21.203Z,68.49
2023-05-03T00:58:12.486Z,69.45
2023-05-03T01:13:24.268Z,71.00
2023-05-03T01:28:20.532Z,72.33
2023-05-03T01:43:11.180Z,73.22
2023-05-03T01:58:02.911Z,73.89
2023-05-03T02:12:53.929Z,74.79
2023-05-03T02:27:56.566Z,75.80
2023-05-03T02:42:43.709Z,76.28
2023-05-03T02:57:35.481Z,77.04
2023-05-03T03:12:27.014Z,77.57
2023-05-03T03:27:16.984Z,77.00
2023-05-03T03:42:08.287Z,77.16
2023-05-03T03:57:00.833Z,77.07
2023-05-03T04:11:51.324Z,78.23
2023-05-03T04:26:42.176Z,79.08
2023-05-03T04:41:34.336Z,78.89
2023-05-03T05:11:15.812Z,81.05
2023-05-03T05:26:07.206Z,81.47
2023-05-03T05:40:59.658Z,80.96
2023-05-03T05:55:51.767Z,79.64
2023-05-03T06:10:45.099Z,78.23
2023-05-03T06:25:36.858Z,77.07
2023-05-03T06:40:30.614Z,75.98
2023-05-03T06:55:24.351Z,74.17
2023-05-03T07:10:17.792Z,72.10
2023-05-03T07:25:09.946Z,71.49
2023-05-03T07:40:05.455Z,70.19
2023-05-03T07:54:57.374Z,69.64
2023-05-03T08:09:49.680Z,68.97
2023-05-03T08:24:42.101Z,67.58
2023-05-03T08:39:35.792Z,65.99
2023-05-03T08:54:28.876Z,65.08
2023-05-03T09:09:21.300Z,64.05
2023-05-03T09:24:19.937Z,63.05
2023-05-03T09:39:17.425Z,62.09
2023-05-03T09:54:10.761Z,60.13
2023-05-03T10:09:20.987Z,59.00
2023-05-03T10:24:19.591Z,58.29
2023-05-03T10:39:16.497Z,56.62
2023-05-03T10:54:12.841Z,54.81
2023-05-03T11:09:05.016Z,54.32
2023-05-03T11:23:56.312Z,52.70
2023-05-03T11:38:49.233Z,50.77
2023-05-03T11:53:43.003Z,48.82
2023-05-03T12:08:37.599Z,47.14
2023-05-03T12:23:27.972Z,45.97
2023-05-03T12:38:23.655Z,46.02
2023-05-03T12:53:16.984Z,44.76
2023-05-03T13:08:10.176Z,43.12
2023-05-03T13:22:59.686Z,43.17
2023-05-03T13:37:54.000Z,41.53
2023-05-03T13:52:45.593Z,41.34
2023-05-03T14:07:40.736Z,40.25
2023-05-03T14:22:37.910Z,38.82
2023-05-03T14:37:35.765Z,37.78
2023-05-03T14:52:33.438Z,36.35
2023-05-03T15:07:29.619Z,35.00
2023-05-03T15:22:22.820Z,32.04
2023-05-03T15:37:14.152Z,32.05
2023-05-03T15:52:09.201Z,31.93
2023-05-03T16:06:58.147Z,35.40
2023-05-03T16:21:41.896Z,37.64
2023-05-03T16:36:30.790Z,39.16
2023-05-03T16:51:22.292Z,39.84
2023-05-03T17:21:05.865Z,39.90
2023-05-03T17:50:49.841Z,40.52
2023-05-03T18:05:40.882Z,41.06
2023-05-03T18:20:31.944Z,41.08
2023-05-03T18:35:24.736Z,41.79
2023-05-03T19:20:03.446Z,44.36
2023-05-03T20:04:36.065Z,46.94
2023-05-03T20:19:29.160Z,47.48
2023-05-03T20:34:19.239Z,47.90
2023-05-03T20:49:11.772Z,48.68
2023-05-03T21:04:04.610Z,49.15
2023-05-03T21:18:56.916Z,49.51
2023-05-03T21:33:48.279Z,50.27
2023-05-03T21:48:39.733Z,51.02
2023-05-03T22:03:32.415Z,51.42
2023-05-03T22:18:22.801Z,52.11
2023-05-03T22:33:13.672Z,52.89
2023-05-03T22:48:05.211Z,53.36
2023-05-03T23:02:57.024Z,54.30
2023-05-03T23:17:48.681Z,55.25
2023-05-03T23:32:42.240Z,55.64
2023-05-03T23:47:34.361Z,56.70
